Time;durP1;ratioP1;P1;durP2;ratioP2;P2;SDS_P1;SDS_P2;PMS_P1;PMS_P2;Temp;Humidity;BMP_temperature;BMP_pressure;BME280_temperature;BME280_humidity;BME280_pressure;Samples;Min_cycle;Max_cycle;Signal;HPM_P1;HPM_P2
2023/03/28 00:00:15;;;;;;;;;;;12.60;99.90;;;;;;5012851;28;20328;-66
2023/03/28 00:02:40;;;;;;;;;;;12.60;99.90;;;;;;5012965;28;20004;-65
2023/03/28 00:05:06;;;;;;;;;;;12.60;99.90;;;;;;5012739;28;19945;-66
2023/03/28 00:07:32;;;;;;;;;;;12.60;99.90;;;;;;5012687;28;19961;-63
2023/03/28 00:09:58;;;;;;;;;;;12.70;99.90;;;;;;5012887;28;19924;-66
2023/03/28 00:12:24;;;;;;;;;;;12.60;99.90;;;;;;5012626;28;20329;-66
2023/03/28 00:14:49;;;;;;;;;;;12.60;99.90;;;;;;5012660;28;19980;-66
2023/03/28 00:17:16;;;;;;;;;;;12.60;99.90;;;;;;5012305;28;19912;-66
2023/03/28 00:19:45;;;;;;;;;;;12.70;99.90;;;;;;5012215;28;20397;-66
2023/03/28 00:22:11;;;;;;;;;;;12.70;99.90;;;;;;5012548;28;20334;-66
2023/03/28 00:24:39;;;;;;;;;;;12.70;99.90;;;;;;5012289;28;19999;-66
2023/03/28 00:27:06;;;;;;;;;;;12.80;99.90;;;;;;5012165;28;20024;-67
2023/03/28 00:29:32;;;;;;;;;;;12.80;99.90;;;;;;5006093;28;19932;-66
2023/03/28 00:31:59;;;;;;;;;;;12.70;99.90;;;;;;4992618;28;20008;-67
2023/03/28 00:34:28;;;;;;;;;;;12.70;99.90;;;;;;4992572;28;20005;-67
2023/03/28 00:36:54;;;;;;;;;;;12.70;99.90;;;;;;4992719;28;20277;-67
2023/03/28 00:39:22;;;;;;;;;;;12.80;99.90;;;;;;4992184;28;19914;-67
2023/03/28 00:41:48;;;;;;;;;;;12.80;99.90;;;;;;4992344;28;19987;-68
2023/03/28 00:44:32;;;;;;;;;;;12.80;99.90;;;;;;4992436;28;20415;-68
2023/03/28 00:47:00;;;;;;;;;;;12.80;99.90;;;;;;4992293;28;19943;-67
2023/03/28 00:49:26;;;;;;;;;;;12.80;99.90;;;;;;4992509;28;19956;-67
2023/03/28 00:51:56;;;;;;;;;;;12.80;99.90;;;;;;4992461;28;20382;-67
2023/03/28 00:54:25;;;;;;;;;;;12.80;99.90;;;;;;4992628;28;19960;-66
2023/03/28 00:56:55;;;;;;;;;;;12.70;99.90;;;;;;4991145;28;19910;-66
2023/03/28 00:59:25;;;;;;;;;;;12.70;99.90;;;;;;4996890;28;19914;-63
2023/03/28 01:01:52;;;;;;;;;;;12.70;99.90;;;;;;5011422;28;19953;-66
2023/03/28 01:04:19;;;;;;;;;;;12.60;99.90;;;;;;5011979;28;20389;-66
2023/03/28 01:06:46;;;;;;;;;;;12.60;99.90;;;;;;5011502;28;19909;-66
2023/03/28 01:09:13;;;;;;;;;;;12.60;99.90;;;;;;5011719;28;20353;-66
2023/03/28 01:11:40;;;;;;;;;;;12.70;99.90;;;;;;4994111;28;19916;-65
2023/03/28 01:14:08;;;;;;;;;;;12.60;99.90;;;;;;5011529;28;19912;-66
2023/03/28 01:16:40;;;;;;;;;;;12.50;99.90;;;;;;5011456;28;20261;-66
2023/03/28 01:19:13;;;;;;;;;;;12.50;99.90;;;;;;5011614;28;19913;-66
2023/03/28 01:21:47;;;;;;;;;;;12.40;99.90;;;;;;5011655;28;20004;-66
2023/03/28 01:24:31;;;;;;;;;;;12.40;99.90;;;;;;5011468;28;19906;-66
2023/03/28 01:27:09;;;;;;;;;;;12.30;99.90;;;;;;5025841;28;20251;-66
2023/03/28 01:29:59;;;;;;;;;;;12.30;99.90;;;;;;5011239;28;19949;-66
2023/03/28 01:32:46;;;;;;;;;;;12.30;99.90;;;;;;5011176;28;19905;-65
2023/03/28 01:35:31;;;;;;;;;;;12.30;99.90;;;;;;4993742;28;19909;-66
2023/03/28 01:38:06;;;;;;;;;;;12.20;99.90;;;;;;5011822;28;19905;-65
2023/03/28 01:40:47;;;;;;;;;;;12.20;99.90;;;;;;5015551;28;20349;-66
2023/03/28 01:43:21;;;;;;;;;;;12.30;99.90;;;;;;5015371;28;20391;-65
2023/03/28 01:45:48;;;;;;;;;;;12.30;99.90;;;;;;5015471;28;19909;-66
2023/03/28 01:48:19;;;;;;;;;;;12.30;99.90;;;;;;5015039;28;20265;-65
2023/03/28 01:50:51;;;;;;;;;;;12.40;99.90;;;;;;5015248;28;20254;-65
2023/03/28 01:53:27;;;;;;;;;;;12.30;99.90;;;;;;5015028;28;19905;-64
2023/03/28 01:56:01;;;;;;;;;;;12.30;99.90;;;;;;5015215;28;19959;-66
2023/03/28 01:58:38;;;;;;;;;;;12.30;99.90;;;;;;5015003;28;19909;-65
2023/03/28 02:01:08;;;;;;;;;;;12.30;99.90;;;;;;5014709;28;19937;-66
2023/03/28 02:03:36;;;;;;;;;;;12.30;99.90;;;;;;5014748;28;20229;-66
2023/03/28 02:06:04;;;;;;;;;;;12.20;99.90;;;;;;4997080;28;19968;-65
2023/03/28 02:08:32;;;;;;;;;;;12.10;99.90;;;;;;5014737;28;19912;-65
2023/03/28 02:10:58;;;;;;;;;;;12.10;99.90;;;;;;5014787;28;19913;-66
2023/03/28 02:13:32;;;;;;;;;;;12.20;99.90;;;;;;5014974;28;19909;-66
2023/03/28 02:15:59;;;;;;;;;;;12.00;99.90;;;;;;5014801;28;19973;-66
2023/03/28 02:18:29;;;;;;;;;;;11.90;99.90;;;;;;5014667;28;19996;-65
2023/03/28 02:21:00;;;;;;;;;;;11.90;99.90;;;;;;5014395;28;20238;-66
2023/03/28 02:23:30;;;;;;;;;;;11.80;99.90;;;;;;5014862;28;20357;-66
2023/03/28 02:25:56;;;;;;;;;;;11.90;99.90;;;;;;5014382;28;19912;-66
2023/03/28 02:28:23;;;;;;;;;;;11.80;99.90;;;;;;5014483;28;19906;-66
2023/03/28 02:30:50;;;;;;;;;;;11.80;99.90;;;;;;5013979;28;19909;-67
2023/03/28 02:33:36;;;;;;;;;;;11.70;99.90;;;;;;5014266;28;19905;-66
2023/03/28 02:36:05;;;;;;;;;;;11.80;99.90;;;;;;5014752;28;19906;-66
2023/03/28 02:38:39;;;;;;;;;;;11.70;99.90;;;;;;4996168;28;20340;-66
2023/03/28 02:41:31;;;;;;;;;;;11.80;99.90;;;;;;5014725;28;20332;-66
2023/03/28 02:44:16;;;;;;;;;;;11.90;99.90;;;;;;5013454;28;20062;-66
2023/03/28 02:47:11;;;;;;;;;;;12.00;99.90;;;;;;4973750;28;19905;-66
2023/03/28 02:49:42;;;;;;;;;;;11.90;99.90;;;;;;4973051;28;19996;-65
2023/03/28 02:52:24;;;;;;;;;;;11.90;99.90;;;;;;4972856;28;19913;-65
2023/03/28 02:54:53;;;;;;;;;;;11.90;99.90;;;;;;4972334;28;20370;-65
2023/03/28 02:57:24;;;;;;;;;;;11.70;99.90;;;;;;4972673;28;20105;-66
2023/03/28 03:00:15;;;;;;;;;;;11.80;99.90;;;;;;4972970;28;19921;-66
2023/03/28 03:02:41;;;;;;;;;;;11.90;99.90;;;;;;4970190;28;19918;-66
2023/03/28 03:05:08;;;;;;;;;;;12.00;99.90;;;;;;4972718;28;19932;-65
2023/03/28 03:07:36;;;;;;;;;;;12.10;99.90;;;;;;4972927;28;19960;-66
2023/03/28 03:10:07;;;;;;;;;;;12.20;99.90;;;;;;4973027;28;20017;-65
2023/03/28 03:12:33;;;;;;;;;;;12.20;99.90;;;;;;4973319;28;19989;-66
2023/03/28 03:15:00;;;;;;;;;;;12.30;99.90;;;;;;4973090;28;19913;-66
2023/03/28 03:17:27;;;;;;;;;;;12.30;99.90;;;;;;4956899;28;20250;-66
2023/03/28 03:19:54;;;;;;;;;;;12.20;99.90;;;;;;4981381;28;19913;-65
2023/03/28 03:22:21;;;;;;;;;;;12.10;99.90;;;;;;5014626;28;19905;-66
2023/03/28 03:24:49;;;;;;;;;;;12.10;99.90;;;;;;5014440;28;20336;-66
2023/03/28 03:27:19;;;;;;;;;;;12.00;99.90;;;;;;5014312;28;19910;-65
2023/03/28 03:29:45;;;;;;;;;;;11.80;99.90;;;;;;5013916;28;20029;-65
2023/03/28 03:32:11;;;;;;;;;;;11.80;99.90;;;;;;5014121;28;20004;-66
2023/03/28 03:34:40;;;;;;;;;;;11.70;99.90;;;;;;5014316;28;20008;-66
2023/03/28 03:37:10;;;;;;;;;;;11.80;99.90;;;;;;5014313;28;19905;-65
2023/03/28 03:39:36;;;;;;;;;;;11.80;99.90;;;;;;5014103;28;19913;-66
2023/03/28 03:42:02;;;;;;;;;;;11.90;99.90;;;;;;5014105;28;19969;-66
2023/03/28 03:44:29;;;;;;;;;;;12.00;99.90;;;;;;5014016;28;20362;-66
2023/03/28 03:46:56;;;;;;;;;;;12.00;99.90;;;;;;5014182;28;19909;-66
2023/03/28 03:49:22;;;;;;;;;;;12.10;99.90;;;;;;5013901;28;19905;-66
2023/03/28 03:51:47;;;;;;;;;;;12.10;99.90;;;;;;5013924;28;19999;-66
2023/03/28 03:54:13;;;;;;;;;;;12.10;99.90;;;;;;5013897;28;19905;-66
2023/03/28 03:56:39;;;;;;;;;;;12.10;99.90;;;;;;5013849;28;19960;-65
2023/03/28 03:59:05;;;;;;;;;;;12.10;99.90;;;;;;5013774;28;19972;-66
2023/03/28 04:01:38;;;;;;;;;;;12.10;99.90;;;;;;4995343;28;20393;-65
2023/03/28 04:04:06;;;;;;;;;;;12.20;99.90;;;;;;5013523;28;20265;-66
2023/03/28 04:06:32;;;;;;;;;;;12.20;99.90;;;;;;5013570;28;19913;-65
2023/03/28 04:08:57;;;;;;;;;;;12.20;99.90;;;;;;5013984;28;19906;-65
2023/03/28 04:11:24;;;;;;;;;;;12.20;99.90;;;;;;5013569;28;19912;-66
2023/03/28 04:13:49;;;;;;;;;;;12.20;99.90;;;;;;4995765;28;20384;-67
2023/03/28 04:16:16;;;;;;;;;;;12.10;99.90;;;;;;5013955;28;19996;-66
2023/03/28 04:18:49;;;;;;;;;;;12.20;99.90;;;;;;5013923;28;20031;-66
2023/03/28 04:21:20;;;;;;;;;;;12.20;99.90;;;;;;5013993;28;20376;-65
2023/03/28 04:23:47;;;;;;;;;;;12.20;99.90;;;;;;5014022;28;19905;-67
2023/03/28 04:26:14;;;;;;;;;;;12.20;99.90;;;;;;5014422;28;19936;-66
2023/03/28 04:28:40;;;;;;;;;;;12.10;99.90;;;;;;5013955;28;19912;-66
2023/03/28 04:31:10;;;;;;;;;;;12.10;99.90;;;;;;5010966;28;19910;-65
2023/03/28 04:33:38;;;;;;;;;;;12.10;99.90;;;;;;5013763;28;20000;-66
2023/03/28 04:36:06;;;;;;;;;;;12.10;99.90;;;;;;5013724;28;19913;-65
2023/03/28 04:38:35;;;;;;;;;;;12.20;99.90;;;;;;4996023;28;20024;-61
2023/03/28 04:41:03;;;;;;;;;;;12.20;99.90;;;;;;5013791;28;19920;-66
2023/03/28 04:43:30;;;;;;;;;;;12.10;99.90;;;;;;5013377;28;19906;-65
2023/03/28 04:45:59;;;;;;;;;;;12.10;99.90;;;;;;5013736;28;19905;-66
2023/03/28 04:48:25;;;;;;;;;;;12.10;99.90;;;;;;5011164;28;19909;-65
2023/03/28 04:50:52;;;;;;;;;;;12.00;99.90;;;;;;4996303;28;19928;-66
2023/03/28 04:53:18;;;;;;;;;;;12.00;99.90;;;;;;5013746;28;19906;-66
2023/03/28 04:55:48;;;;;;;;;;;12.00;99.90;;;;;;5013780;28;20428;-66
2023/03/28 04:58:17;;;;;;;;;;;12.00;99.90;;;;;;5013629;28;20269;-67
2023/03/28 05:00:44;;;;;;;;;;;12.10;99.90;;;;;;5012834;28;20348;-66
2023/03/28 05:03:17;;;;;;;;;;;12.10;99.90;;;;;;5012956;28;19905;-63
2023/03/28 05:05:44;;;;;;;;;;;12.10;99.90;;;;;;5012867;28;19909;-66
2023/03/28 05:08:11;;;;;;;;;;;12.20;99.90;;;;;;5013239;28;20000;-61
2023/03/28 05:10:37;;;;;;;;;;;12.20;99.90;;;;;;5010876;28;19909;-68
2023/03/28 05:13:03;;;;;;;;;;;12.20;99.90;;;;;;5010524;28;20048;-68
2023/03/28 05:15:30;;;;;;;;;;;12.20;99.90;;;;;;5013013;28;19956;-67
2023/03/28 05:17:56;;;;;;;;;;;12.20;99.90;;;;;;5013087;28;20377;-66
2023/03/28 05:20:23;;;;;;;;;;;12.30;99.90;;;;;;5013097;28;19913;-67
2023/03/28 05:22:49;;;;;;;;;;;12.40;99.90;;;;;;5013202;28;19906;-67
2023/03/28 05:25:16;;;;;;;;;;;12.30;99.90;;;;;;5013136;28;20380;-65
2023/03/28 05:27:44;;;;;;;;;;;12.40;99.90;;;;;;5013434;28;19972;-67
2023/03/28 05:30:10;;;;;;;;;;;12.40;99.90;;;;;;5010380;28;19909;-66
2023/03/28 05:32:39;;;;;;;;;;;12.50;99.90;;;;;;5012643;28;19967;-67
2023/03/28 05:35:06;;;;;;;;;;;12.50;99.90;;;;;;5013238;28;19980;-65
2023/03/28 05:37:32;;;;;;;;;;;12.60;99.90;;;;;;5007840;28;20032;-66
2023/03/28 05:39:59;;;;;;;;;;;12.70;99.90;;;;;;5021145;28;19913;-67
2023/03/28 05:42:25;;;;;;;;;;;12.70;99.90;;;;;;5032332;28;20332;-67
2023/03/28 05:44:54;;;;;;;;;;;12.80;99.90;;;;;;5032093;28;19909;-67
2023/03/28 05:47:20;;;;;;;;;;;12.80;99.90;;;;;;5032683;28;19997;-68
2023/03/28 05:49:47;;;;;;;;;;;13.40;99.90;;;;;;5031878;28;19905;-68
2023/03/28 05:52:13;;;;;;;;;;;14.70;99.90;;;;;;5031903;28;19917;-66
2023/03/28 05:54:39;;;;;;;;;;;16.00;99.90;;;;;;5032014;28;19912;-70
2023/03/28 05:57:06;;;;;;;;;;;17.10;99.90;;;;;;5031569;28;19905;-67
2023/03/28 05:59:32;;;;;;;;;;;18.00;99.90;;;;;;5025814;28;20008;-67
2023/03/28 06:02:00;;;;;;;;;;;19.20;99.90;;;;;;5011769;28;20015;-65
2023/03/28 06:04:26;;;;;;;;;;;19.60;99.90;;;;;;5012097;28;19905;-69
2023/03/28 06:06:53;;;;;;;;;;;19.30;99.90;;;;;;5011609;28;19997;-63
2023/03/28 06:09:18;;;;;;;;;;;19.60;99.90;;;;;;5012197;28;20345;-68
2023/03/28 06:11:44;;;;;;;;;;;21.20;99.90;;;;;;5012512;28;20000;-69
2023/03/28 06:14:11;;;;;;;;;;;22.30;99.90;;;;;;5012137;28;19942;-67
2023/03/28 06:16:37;;;;;;;;;;;23.00;99.90;;;;;;5012364;28;20004;-67
2023/03/28 06:19:03;;;;;;;;;;;24.60;99.90;;;;;;4994007;28;19920;-68
2023/03/28 06:21:29;;;;;;;;;;;24.80;99.90;;;;;;5012576;28;20397;-68
2023/03/28 06:23:55;;;;;;;;;;;24.70;99.90;;;;;;5012418;28;19942;-69
2023/03/28 06:26:22;;;;;;;;;;;24.80;99.90;;;;;;5015861;28;20389;-67
2023/03/28 06:28:48;;;;;;;;;;;25.90;99.90;;;;;;5016385;28;19960;-67
2023/03/28 06:31:13;;;;;;;;;;;26.20;99.90;;;;;;4998038;28;19905;-70
2023/03/28 06:33:41;;;;;;;;;;;25.50;99.90;;;;;;5015852;28;20273;-68
2023/03/28 06:36:09;;;;;;;;;;;26.40;99.90;;;;;;5015826;28;20428;-67
2023/03/28 06:38:39;;;;;;;;;;;26.60;99.90;;;;;;5016284;28;19928;-68
2023/03/28 06:41:05;;;;;;;;;;;27.00;99.90;;;;;;5015807;28;20336;-68
2023/03/28 06:43:32;;;;;;;;;;;28.20;99.90;;;;;;5015598;28;20428;-68
2023/03/28 06:45:58;;;;;;;;;;;28.40;99.90;;;;;;5015339;28;19990;-68
2023/03/28 06:48:30;;;;;;;;;;;28.70;99.90;;;;;;5015510;28;19972;-67
2023/03/28 06:50:56;;;;;;;;;;;27.70;99.90;;;;;;5015828;28;19909;-67
2023/03/28 06:53:24;;;;;;;;;;;28.70;99.90;;;;;;5015537;28;19905;-68
2023/03/28 06:55:52;;;;;;;;;;;28.10;99.90;;;;;;5015570;28;19916;-68
2023/03/28 06:58:19;;;;;;;;;;;28.40;99.90;;;;;;4997357;28;19960;-67
2023/03/28 07:00:45;;;;;;;;;;;28.40;99.90;;;;;;5014808;28;20407;-68
2023/03/28 07:03:13;;;;;;;;;;;29.10;99.90;;;;;;5014703;28;19913;-68
2023/03/28 07:05:40;;;;;;;;;;;30.20;99.10;;;;;;5015502;28;20380;-68
2023/03/28 07:08:08;;;;;;;;;;;29.50;99.00;;;;;;4997583;28;19909;-67
2023/03/28 07:10:34;;;;;;;;;;;28.00;99.90;;;;;;5015512;28;19988;-69
2023/03/28 07:13:04;;;;;;;;;;;28.50;99.50;;;;;;5015041;28;19924;-68
2023/03/28 07:15:29;;;;;;;;;;;29.00;99.00;;;;;;4996463;28;19906;-68
2023/03/28 07:17:56;;;;;;;;;;;30.10;98.30;;;;;;4996750;28;19932;-69
2023/03/28 07:20:23;;;;;;;;;;;30.20;98.00;;;;;;5014928;28;20290;-68
2023/03/28 07:22:49;;;;;;;;;;;28.40;98.90;;;;;;5015092;28;19913;-68
2023/03/28 07:25:16;;;;;;;;;;;27.50;99.90;;;;;;5014433;28;20204;-70
2023/03/28 07:27:41;;;;;;;;;;;27.00;99.90;;;;;;5015058;28;20253;-69
2023/03/28 07:30:09;;;;;;;;;;;26.90;99.90;;;;;;5014558;28;19906;-69
2023/03/28 07:32:35;;;;;;;;;;;26.70;99.90;;;;;;5014512;28;19950;-69
2023/03/28 07:35:02;;;;;;;;;;;26.20;99.90;;;;;;5014689;28;20357;-69
2023/03/28 07:37:29;;;;;;;;;;;25.90;99.90;;;;;;5013230;28;19927;-69
2023/03/28 07:39:55;;;;;;;;;;;25.70;99.90;;;;;;5014518;28;19982;-69
2023/03/28 07:42:22;;;;;;;;;;;25.40;99.90;;;;;;5014120;28;20000;-69
2023/03/28 07:44:48;;;;;;;;;;;24.80;99.90;;;;;;5014400;28;20065;-68
2023/03/28 07:47:14;;;;;;;;;;;25.00;99.90;;;;;;5014366;28;20362;-69
2023/03/28 07:49:40;;;;;;;;;;;24.10;99.90;;;;;;5013810;28;19929;-69
2023/03/28 07:52:06;;;;;;;;;;;24.00;99.90;;;;;;5013666;28;20365;-70
2023/03/28 07:54:33;;;;;;;;;;;24.00;99.90;;;;;;5013488;28;19905;-67
2023/03/28 07:57:00;;;;;;;;;;;23.10;99.90;;;;;;5013348;28;19913;-69
2023/03/28 07:59:28;;;;;;;;;;;23.00;99.90;;;;;;5013327;28;20421;-69
2023/03/28 08:01:55;;;;;;;;;;;23.20;99.90;;;;;;5013295;28;19917;-72
2023/03/28 08:04:22;;;;;;;;;;;22.90;99.90;;;;;;5013379;28;19913;-68
2023/03/28 08:06:51;;;;;;;;;;;22.60;99.90;;;;;;5013676;28;19949;-70
2023/03/28 08:09:17;;;;;;;;;;;22.70;99.90;;;;;;5013844;28;19905;-70
2023/03/28 08:11:44;;;;;;;;;;;23.10;99.90;;;;;;5013721;28;19921;-70
2023/03/28 08:14:11;;;;;;;;;;;23.20;99.90;;;;;;4995871;28;19916;-69
2023/03/28 08:16:38;;;;;;;;;;;23.20;99.90;;;;;;5013465;28;20218;-71
2023/03/28 08:19:04;;;;;;;;;;;23.10;99.90;;;;;;5013373;28;19945;-70
2023/03/28 08:21:30;;;;;;;;;;;23.10;99.90;;;;;;5013471;28;19996;-68
2023/03/28 08:23:57;;;;;;;;;;;22.50;99.90;;;;;;5013908;28;19920;-68
2023/03/28 08:26:24;;;;;;;;;;;22.40;99.90;;;;;;5013263;28;19906;-69
2023/03/28 08:28:53;;;;;;;;;;;21.90;99.90;;;;;;4995639;28;19912;-70
2023/03/28 08:31:22;;;;;;;;;;;21.30;99.90;;;;;;4996070;28;19945;-68
2023/03/28 08:33:50;;;;;;;;;;;21.20;99.90;;;;;;5013184;28;19905;-68
2023/03/28 08:36:19;;;;;;;;;;;21.50;99.90;;;;;;5013437;28;19909;-71
2023/03/28 08:38:45;;;;;;;;;;;22.10;99.90;;;;;;5013190;28;19944;-69
2023/03/28 08:41:32;;;;;;;;;;;21.70;99.90;;;;;;5013196;28;20377;-67
2023/03/28 08:44:18;;;;;;;;;;;22.00;99.90;;;;;;4995354;28;19988;-68
2023/03/28 08:46:45;;;;;;;;;;;22.00;99.90;;;;;;5013551;28;19910;-65
2023/03/28 08:49:14;;;;;;;;;;;21.30;99.90;;;;;;5012427;28;19981;-66
2023/03/28 08:51:41;;;;;;;;;;;21.00;99.90;;;;;;5012925;28;19912;-66
2023/03/28 08:54:07;;;;;;;;;;;21.30;99.90;;;;;;5012992;28;19906;-67
2023/03/28 08:56:40;;;;;;;;;;;21.70;99.90;;;;;;5012893;28;20368;-69
2023/03/28 08:59:16;;;;;;;;;;;22.00;99.90;;;;;;4994926;28;19921;-67
2023/03/28 09:01:44;;;;;;;;;;;21.70;99.90;;;;;;5012296;28;20003;-69
2023/03/28 09:04:20;;;;;;;;;;;22.10;99.90;;;;;;5012869;28;19905;-68
2023/03/28 09:06:48;;;;;;;;;;;22.20;99.90;;;;;;5013026;28;19931;-67
2023/03/28 09:09:19;;;;;;;;;;;22.50;99.90;;;;;;5012514;28;19905;-69
2023/03/28 09:12:06;;;;;;;;;;;22.50;99.90;;;;;;5012483;28;19993;-69
2023/03/28 09:14:59;;;;;;;;;;;22.60;99.90;;;;;;5012160;28;19952;-70
2023/03/28 09:17:45;;;;;;;;;;;22.20;99.90;;;;;;5012422;28;19944;-68
2023/03/28 09:20:20;;;;;;;;;;;21.20;99.90;;;;;;5012768;28;19968;-69
2023/03/28 09:23:03;;;;;;;;;;;21.40;99.90;;;;;;5012350;28;19909;-66
2023/03/28 09:25:49;;;;;;;;;;;21.00;99.90;;;;;;5012592;28;19910;-68
2023/03/28 09:28:24;;;;;;;;;;;21.10;99.90;;;;;;5012466;28;19905;-69
2023/03/28 09:30:51;;;;;;;;;;;21.20;99.90;;;;;;5012391;28;19906;-69
2023/03/28 09:33:20;;;;;;;;;;;20.70;99.90;;;;;;4994401;28;19927;-69
2023/03/28 09:35:49;;;;;;;;;;;20.80;99.90;;;;;;5012578;28;19909;-69
2023/03/28 09:38:18;;;;;;;;;;;21.40;99.90;;;;;;5012386;28;19927;-69
2023/03/28 09:40:46;;;;;;;;;;;21.50;99.90;;;;;;5011907;28;20284;-69
2023/03/28 09:43:17;;;;;;;;;;;21.60;99.90;;;;;;5012177;28;19947;-68
2023/03/28 09:45:52;;;;;;;;;;;20.70;99.90;;;;;;5012193;28;19912;-69
2023/03/28 09:48:20;;;;;;;;;;;20.80;99.90;;;;;;5011867;28;19953;-69
2023/03/28 09:50:46;;;;;;;;;;;21.00;99.90;;;;;;5012566;28;19932;-69
2023/03/28 09:53:31;;;;;;;;;;;20.90;99.90;;;;;;4994529;28;20426;-69
2023/03/28 09:56:10;;;;;;;;;;;20.60;99.90;;;;;;5012134;28;19906;-69
2023/03/28 09:58:49;;;;;;;;;;;20.60;99.90;;;;;;5011968;28;20008;-69
2023/03/28 10:01:29;;;;;;;;;;;21.00;99.90;;;;;;5015332;28;19917;-69
2023/03/28 10:03:56;;;;;;;;;;;21.00;99.90;;;;;;5015776;28;19984;-69
2023/03/28 10:06:29;;;;;;;;;;;21.20;99.90;;;;;;5015847;28;19905;-69
2023/03/28 10:09:13;;;;;;;;;;;21.50;99.90;;;;;;5015751;28;19989;-71
2023/03/28 10:11:43;;;;;;;;;;;21.40;99.90;;;;;;5015658;28;19989;-70
2023/03/28 10:14:27;;;;;;;;;;;21.00;99.90;;;;;;5016125;28;19905;-69
2023/03/28 10:16:52;;;;;;;;;;;21.00;99.90;;;;;;5016260;28;19905;-70
2023/03/28 10:19:23;;;;;;;;;;;21.30;99.90;;;;;;5015846;28;19913;-68
2023/03/28 10:21:49;;;;;;;;;;;21.30;99.90;;;;;;5016508;28;19905;-69
2023/03/28 10:24:16;;;;;;;;;;;21.50;99.90;;;;;;4997945;28;19905;-68
2023/03/28 10:26:42;;;;;;;;;;;21.50;99.90;;;;;;5015679;28;19912;-70
2023/03/28 10:29:12;;;;;;;;;;;21.90;99.90;;;;;;5015598;28;19910;-67
2023/03/28 10:31:38;;;;;;;;;;;21.60;99.90;;;;;;5016218;28;19972;-66
2023/03/28 10:34:20;;;;;;;;;;;21.40;99.90;;;;;;4997793;28;19955;-66
2023/03/28 10:36:47;;;;;;;;;;;21.50;99.90;;;;;;5015988;28;19957;-67
2023/03/28 10:39:38;;;;;;;;;;;21.80;99.90;;;;;;5015403;28;19949;-66
2023/03/28 10:42:04;;;;;;;;;;;21.90;99.90;;;;;;5013693;28;19905;-66
2023/03/28 10:44:31;;;;;;;;;;;22.30;99.50;;;;;;5015144;28;20009;-67
2023/03/28 10:47:01;;;;;;;;;;;22.50;99.20;;;;;;5014768;28;19988;-69
2023/03/28 10:49:29;;;;;;;;;;;22.50;99.50;;;;;;5014693;28;19948;-68
2023/03/28 10:51:55;;;;;;;;;;;22.60;98.90;;;;;;5015027;28;20265;-68
2023/03/28 10:54:37;;;;;;;;;;;23.00;99.30;;;;;;5015089;28;20380;-68
2023/03/28 10:57:11;;;;;;;;;;;22.60;98.80;;;;;;5015024;28;19910;-68
2023/03/28 10:59:46;;;;;;;;;;;22.60;98.10;;;;;;5006711;28;19921;-68
2023/03/28 11:02:21;;;;;;;;;;;22.80;97.90;;;;;;5014661;28;20012;-68
2023/03/28 11:04:54;;;;;;;;;;;23.00;97.40;;;;;;5014348;28;19952;-67
2023/03/28 11:07:20;;;;;;;;;;;23.30;96.00;;;;;;5014907;28;19976;-68
2023/03/28 11:09:51;;;;;;;;;;;23.10;99.20;;;;;;5014970;28;20359;-69
2023/03/28 11:12:37;;;;;;;;;;;22.50;97.20;;;;;;5014032;28;19912;-67
2023/03/28 11:15:06;;;;;;;;;;;22.50;95.80;;;;;;5012703;28;19948;-66
2023/03/28 11:17:35;;;;;;;;;;;22.90;95.70;;;;;;5015495;28;20266;-67
2023/03/28 11:20:09;;;;;;;;;;;23.00;95.90;;;;;;5014951;28;19921;-67
2023/03/28 11:22:52;;;;;;;;;;;23.30;94.70;;;;;;5015058;28;20385;-67
2023/03/28 11:25:26;;;;;;;;;;;23.10;93.70;;;;;;5014857;28;19905;-67
2023/03/28 11:27:52;;;;;;;;;;;22.80;94.00;;;;;;5015301;28;20016;-67
2023/03/28 11:30:23;;;;;;;;;;;22.50;92.60;;;;;;5014720;28;20333;-67
2023/03/28 11:32:56;;;;;;;;;;;22.80;92.90;;;;;;5014765;28;20270;-67
2023/03/28 11:35:26;;;;;;;;;;;22.70;92.60;;;;;;5014833;28;19905;-67
2023/03/28 11:37:58;;;;;;;;;;;22.50;92.40;;;;;;4997075;28;19913;-67
2023/03/28 11:40:30;;;;;;;;;;;22.40;92.70;;;;;;5015184;28;19968;-66
2023/03/28 11:42:59;;;;;;;;;;;22.40;92.70;;;;;;5014564;28;19905;-64
2023/03/28 11:45:27;;;;;;;;;;;22.60;92.10;;;;;;5014354;28;19945;-68
2023/03/28 11:48:08;;;;;;;;;;;22.60;91.90;;;;;;5012212;28;19917;-68
2023/03/28 11:50:58;;;;;;;;;;;22.10;92.00;;;;;;5014566;28;20344;-66
2023/03/28 11:53:32;;;;;;;;;;;22.30;92.40;;;;;;5014822;28;20227;-65
2023/03/28 11:56:22;;;;;;;;;;;22.50;91.50;;;;;;5014578;28;19917;-67
2023/03/28 11:58:55;;;;;;;;;;;21.90;92.20;;;;;;5002989;28;19948;-65
2023/03/28 12:01:23;;;;;;;;;;;22.00;91.80;;;;;;5014032;28;19972;-67
2023/03/28 12:03:48;;;;;;;;;;;22.20;90.70;;;;;;5013207;28;20492;-64
2023/03/28 12:06:20;;;;;;;;;;;22.10;90.60;;;;;;5013977;28;20004;-65
2023/03/28 12:08:53;;;;;;;;;;;22.30;91.30;;;;;;5013286;28;20322;-66
2023/03/28 12:11:30;;;;;;;;;;;22.50;90.20;;;;;;5014571;28;19905;-69
2023/03/28 12:14:19;;;;;;;;;;;22.30;90.10;;;;;;5014337;28;19910;-64
2023/03/28 12:16:48;;;;;;;;;;;22.60;89.90;;;;;;5003729;28;19952;-66
2023/03/28 12:19:17;;;;;;;;;;;22.80;89.70;;;;;;5014199;28;20021;-68
2023/03/28 12:21:44;;;;;;;;;;;22.40;88.70;;;;;;5014624;28;20266;-68
2023/03/28 12:24:14;;;;;;;;;;;22.10;90.00;;;;;;4996227;28;19912;-68
2023/03/28 12:26:41;;;;;;;;;;;22.50;88.60;;;;;;5014592;28;20309;-69
2023/03/28 12:29:14;;;;;;;;;;;22.80;88.40;;;;;;5014285;28;19948;-68
2023/03/28 12:31:46;;;;;;;;;;;22.50;88.00;;;;;;5014031;28;20387;-68
2023/03/28 12:34:20;;;;;;;;;;;22.50;89.00;;;;;;5013904;28;19905;-69
2023/03/28 12:37:13;;;;;;;;;;;22.70;88.30;;;;;;5014687;28;19909;-67
2023/03/28 12:39:44;;;;;;;;;;;22.30;88.20;;;;;;4992625;28;19913;-68
2023/03/28 12:42:13;;;;;;;;;;;22.30;89.80;;;;;;5014460;28;19905;-68
2023/03/28 12:44:49;;;;;;;;;;;22.10;89.40;;;;;;5013982;28;20285;-69
2023/03/28 12:47:19;;;;;;;;;;;21.70;90.50;;;;;;5014486;28;19905;-69
2023/03/28 12:49:45;;;;;;;;;;;21.90;90.20;;;;;;5014129;28;19906;-69
2023/03/28 12:52:14;;;;;;;;;;;21.90;89.10;;;;;;5014577;28;19917;-69
2023/03/28 12:55:02;;;;;;;;;;;21.70;86.90;;;;;;5012777;28;19909;-69
2023/03/28 12:57:39;;;;;;;;;;;21.70;87.50;;;;;;5014183;28;19987;-69
2023/03/28 13:00:09;;;;;;;;;;;21.60;88.40;;;;;;5013480;28;19960;-68
2023/03/28 13:02:46;;;;;;;;;;;21.80;86.90;;;;;;4996041;28;19921;-69
2023/03/28 13:05:12;;;;;;;;;;;21.50;88.40;;;;;;5013367;28;19910;-69
2023/03/28 13:07:47;;;;;;;;;;;21.50;88.30;;;;;;4996616;28;19905;-69
2023/03/28 13:10:23;;;;;;;;;;;21.50;86.40;;;;;;5014092;28;20195;-69
2023/03/28 13:13:01;;;;;;;;;;;21.80;87.60;;;;;;5011369;28;19906;-69
2023/03/28 13:15:28;;;;;;;;;;;22.20;88.30;;;;;;5013521;28;19905;-68
2023/03/28 13:18:14;;;;;;;;;;;21.80;89.10;;;;;;5013473;28;19912;-66
2023/03/28 13:20:45;;;;;;;;;;;22.00;88.30;;;;;;5010829;28;20427;-66
2023/03/28 13:23:13;;;;;;;;;;;22.00;88.20;;;;;;5012531;28;19956;-65
2023/03/28 13:25:41;;;;;;;;;;;22.10;89.00;;;;;;4994787;28;20095;-65
2023/03/28 13:28:10;;;;;;;;;;;22.10;87.30;;;;;;5012258;28;20389;-69
2023/03/28 13:30:36;;;;;;;;;;;22.10;86.10;;;;;;5012440;28;19909;-67
2023/03/28 13:33:15;;;;;;;;;;;22.20;83.40;;;;;;5012243;28;19910;-66
2023/03/28 13:35:45;;;;;;;;;;;22.10;83.50;;;;;;5012326;28;19920;-67
2023/03/28 13:38:26;;;;;;;;;;;22.00;80.40;;;;;;5013310;28;19916;-69
2023/03/28 13:40:57;;;;;;;;;;;21.90;81.20;;;;;;5013232;28;19968;-69
2023/03/28 13:43:26;;;;;;;;;;;21.80;81.20;;;;;;5013157;28;19913;-69
2023/03/28 13:45:57;;;;;;;;;;;21.50;80.80;;;;;;5013207;28;20299;-69
2023/03/28 13:48:25;;;;;;;;;;;21.30;80.70;;;;;;4995160;28;20273;-69
2023/03/28 13:50:52;;;;;;;;;;;21.10;82.10;;;;;;5013405;28;19937;-69
2023/03/28 13:53:18;;;;;;;;;;;21.20;79.40;;;;;;5012998;28;19935;-69
2023/03/28 13:55:43;;;;;;;;;;;21.60;79.40;;;;;;5012737;28;20237;-70
2023/03/28 13:58:12;;;;;;;;;;;21.80;81.50;;;;;;5013256;28;19905;-70
2023/03/28 14:00:38;;;;;;;;;;;21.60;80.10;;;;;;5012778;28;20019;-70
2023/03/28 14:03:10;;;;;;;;;;;21.30;80.20;;;;;;5012045;28;19961;-71
2023/03/28 14:05:41;;;;;;;;;;;21.50;82.00;;;;;;5012820;28;19910;-71
2023/03/28 14:08:16;;;;;;;;;;;21.50;79.70;;;;;;5012675;28;19909;-69
2023/03/28 14:10:43;;;;;;;;;;;21.20;81.30;;;;;;5012539;28;19912;-71
2023/03/28 14:13:16;;;;;;;;;;;21.30;80.20;;;;;;5012460;28;19959;-69
2023/03/28 14:15:43;;;;;;;;;;;21.60;78.60;;;;;;5012061;28;19996;-71
2023/03/28 14:18:14;;;;;;;;;;;21.10;78.20;;;;;;5012700;28;19912;-70
2023/03/28 14:20:41;;;;;;;;;;;20.70;78.10;;;;;;5012737;28;19920;-67
2023/03/28 14:23:06;;;;;;;;;;;20.60;79.30;;;;;;5012566;28;19998;-68
2023/03/28 14:25:33;;;;;;;;;;;20.70;79.90;;;;;;5012393;28;19913;-69
2023/03/28 14:28:05;;;;;;;;;;;20.70;81.80;;;;;;5012608;28;20269;-68
2023/03/28 14:30:36;;;;;;;;;;;20.50;89.10;;;;;;4997739;28;20258;-67
2023/03/28 14:33:15;;;;;;;;;;;20.30;91.80;;;;;;4992709;28;19909;-68